createdAt,value
2017-10-04T00:00:03.034Z,11.8
2017-10-04T00:15:02.909Z,11.7
2017-10-04T00:30:02.796Z,11.7
2017-10-04T00:45:04.136Z,11.6
2017-10-04T01:00:02.999Z,11.6
2017-10-04T01:15:02.875Z,11.6
2017-10-04T01:30:02.975Z,11.6
2017-10-04T01:45:02.864Z,11.5
2017-10-04T02:00:09.060Z,11.5
2017-10-04T02:15:03.060Z,11.4
2017-10-04T02:30:02.964Z,11.4
2017-10-04T02:45:02.808Z,11.4
2017-10-04T03:00:04.835Z,11.3
2017-10-04T03:15:04.755Z,11.3
2017-10-04T03:30:05.489Z,11.2
2017-10-04T03:45:03.359Z,11.2
2017-10-04T04:00:03.406Z,11.2
2017-10-04T04:15:03.827Z,11.2
2017-10-04T04:30:02.833Z,11.2
2017-10-04T04:45:03.555Z,11.2
2017-10-04T05:00:03.419Z,11.1
2017-10-04T05:15:03.165Z,11.1
2017-10-04T05:30:03.047Z,11.1
2017-10-04T05:45:02.848Z,11.1
2017-10-04T06:00:04.981Z,11.1
2017-10-04T06:15:02.787Z,11.1
2017-10-04T06:30:02.776Z,11
2017-10-04T06:45:04.025Z,11
2017-10-04T07:00:03.159Z,11
2017-10-04T07:15:02.931Z,11
2017-10-04T07:30:03.012Z,11
2017-10-04T07:45:02.799Z,11
2017-10-04T08:00:04.665Z,11
2017-10-04T08:15:04.089Z,11
2017-10-04T08:30:03.017Z,11
2017-10-04T08:45:03.258Z,11.1
2017-10-04T09:00:03.100Z,11.1
2017-10-04T09:15:04.988Z,11.1
2017-10-04T09:30:02.995Z,11.1
2017-10-04T09:45:03.149Z,11.1
2017-10-04T10:00:02.922Z,11.1
2017-10-04T10:15:03.426Z,11.1
2017-10-04T10:30:03.361Z,11.2
2017-10-04T10:45:03.225Z,11.2
2017-10-04T11:00:03.300Z,11.2
2017-10-04T11:15:03.604Z,11.2
2017-10-04T11:30:04.310Z,11.3
2017-10-04T11:45:03.934Z,11.4
2017-10-04T12:00:04.686Z,11.4
2017-10-04T12:15:04.829Z,11.5
2017-10-04T12:30:04.122Z,11.6
2017-10-04T12:45:03.957Z,11.6
2017-10-04T13:00:02.799Z,11.6
2017-10-04T13:15:04.161Z,11.6
2017-10-04T13:30:03.194Z,11.6
2017-10-04T13:45:03.296Z,11.7
2017-10-04T14:00:03.627Z,11.8
2017-10-04T14:15:04.208Z,11.8
2017-10-04T14:30:03.610Z,11.8
2017-10-04T14:45:03.787Z,11.8
2017-10-04T15:00:03.636Z,11.8
2017-10-04T15:15:03.370Z,11.8
2017-10-04T15:30:03.687Z,11.9
2017-10-04T15:45:04.006Z,11.9
2017-10-04T16:00:02.722Z,11.9
2017-10-04T16:15:04.111Z,11.9
2017-10-04T16:30:03.093Z,11.9
2017-10-04T16:45:02.808Z,11.9
2017-10-04T17:00:03.027Z,11.9
2017-10-04T17:15:02.882Z,11.9
2017-10-04T17:30:02.667Z,11.8
2017-10-04T17:45:03.354Z,11.8
2017-10-04T18:00:03.229Z,11.8
2017-10-04T18:15:03.211Z,11.8
2017-10-04T18:30:04.011Z,11.8
2017-10-04T18:45:02.665Z,11.8
2017-10-04T19:00:03.438Z,11.7
2017-10-04T19:15:03.378Z,11.7
2017-10-04T19:30:03.375Z,11.7
2017-10-04T19:45:03.035Z,11.6
2017-10-04T20:00:02.846Z,11.6
2017-10-04T20:15:03.492Z,11.6
2017-10-04T20:30:03.437Z,11.6
2017-10-04T20:45:03.202Z,11.6
2017-10-04T21:00:03.051Z,11.5
2017-10-04T21:15:02.790Z,11.5
2017-10-04T21:30:04.156Z,11.5
2017-10-04T21:45:02.860Z,11.4
2017-10-04T22:00:02.613Z,11.4
2017-10-04T22:15:03.720Z,11.4
2017-10-04T22:30:03.899Z,11.4
2017-10-04T22:45:04.635Z,11.4
2017-10-04T23:00:03.610Z,11.4
2017-10-04T23:15:04.181Z,11.3
2017-10-04T23:30:02.924Z,11.3
2017-10-04T23:45:02.796Z,11.3
